createdAt,value
2018-01-14T00:02:04.763Z,13.70
2018-01-14T00:04:33.054Z,12.43
2018-01-14T00:07:01.556Z,13.53
2018-01-14T00:09:29.799Z,13.00
2018-01-14T00:11:58.083Z,12.43
2018-01-14T00:14:26.389Z,13.40
2018-01-14T00:16:54.922Z,13.55
2018-01-14T00:19:23.215Z,12.88
2018-01-14T00:21:51.810Z,12.82
2018-01-14T00:24:20.077Z,12.70
2018-01-14T00:26:49.546Z,12.93
2018-01-14T00:29:17.823Z,13.70
2018-01-14T00:31:46.124Z,12.50
2018-01-14T00:34:14.568Z,12.57
2018-01-14T00:36:43.036Z,12.33
2018-01-14T00:39:12.264Z,12.93
2018-01-14T00:41:40.564Z,13.10
2018-01-14T00:44:08.831Z,11.63
2018-01-14T00:46:37.159Z,11.73
2018-01-14T00:49:05.457Z,12.68
2018-01-14T00:51:34.084Z,12.70
2018-01-14T00:54:02.406Z,11.90
2018-01-14T00:56:30.761Z,12.40
2018-01-14T00:58:59.027Z,11.82
2018-01-14T01:01:27.279Z,12.50
2018-01-14T01:03:55.575Z,11.90
2018-01-14T01:06:23.848Z,11.50
2018-01-14T01:08:52.153Z,12.30
2018-01-14T01:11:20.492Z,12.60
2018-01-14T01:13:48.770Z,12.10
2018-01-14T01:16:17.042Z,11.45
2018-01-14T01:18:45.377Z,12.50
2018-01-14T01:21:13.903Z,12.47
2018-01-14T01:23:42.298Z,12.23
2018-01-14T01:26:10.538Z,11.50
2018-01-14T01:28:38.861Z,11.70
2018-01-14T01:31:07.205Z,12.73
2018-01-14T01:33:35.453Z,12.20
2018-01-14T01:36:03.823Z,13.13
2018-01-14T01:38:32.112Z,11.93
2018-01-14T01:41:00.419Z,12.30
2018-01-14T01:43:28.703Z,11.40
2018-01-14T01:45:57.101Z,12.37
2018-01-14T01:48:25.345Z,12.47
2018-01-14T01:50:53.643Z,12.60
2018-01-14T01:53:21.911Z,12.20
2018-01-14T01:55:50.203Z,11.80
2018-01-14T01:58:18.495Z,12.70
2018-01-14T02:00:46.790Z,13.10
2018-01-14T02:03:15.254Z,11.50
2018-01-14T02:05:43.532Z,13.07
2018-01-14T02:08:11.890Z,11.77
2018-01-14T02:10:40.165Z,12.32
2018-01-14T02:13:08.455Z,12.50
2018-01-14T02:15:36.777Z,12.43
2018-01-14T02:18:05.089Z,11.70
2018-01-14T02:20:33.374Z,11.77
2018-01-14T02:23:01.687Z,13.10
2018-01-14T02:25:30.663Z,12.60
2018-01-14T02:27:58.958Z,12.70
2018-01-14T02:30:27.219Z,12.60
2018-01-14T02:32:55.519Z,12.00
2018-01-14T02:35:23.842Z,11.10
2018-01-14T02:37:52.120Z,12.77
2018-01-14T02:40:20.381Z,12.40
2018-01-14T02:42:48.679Z,12.50
2018-01-14T02:45:17.291Z,11.70
2018-01-14T02:47:45.538Z,12.30
2018-01-14T02:50:13.864Z,11.82
2018-01-14T02:52:42.150Z,12.57
2018-01-14T02:55:10.483Z,11.97
2018-01-14T02:57:38.751Z,11.60
2018-01-14T03:00:07.073Z,12.30
2018-01-14T03:02:35.378Z,12.40
2018-01-14T03:05:03.683Z,12.27
2018-01-14T03:07:31.955Z,12.10
2018-01-14T03:10:00.247Z,12.73
2018-01-14T03:12:28.521Z,12.57
2018-01-14T03:14:56.816Z,11.93
2018-01-14T03:17:25.103Z,12.75
2018-01-14T03:19:53.447Z,11.50
2018-01-14T03:22:21.719Z,13.45
2018-01-14T03:24:50.008Z,12.50
2018-01-14T03:27:18.296Z,12.27
2018-01-14T03:29:46.577Z,13.03
2018-01-14T03:32:14.887Z,12.27
2018-01-14T03:34:43.156Z,12.83
2018-01-14T03:37:11.461Z,11.77
2018-01-14T03:39:39.767Z,12.37
2018-01-14T03:42:08.059Z,12.50
2018-01-14T03:44:36.334Z,11.70
2018-01-14T03:47:05.334Z,12.93
2018-01-14T03:49:33.611Z,12.10
2018-01-14T03:52:01.912Z,12.40
2018-01-14T03:54:30.202Z,11.90
2018-01-14T03:56:58.539Z,12.40
2018-01-14T03:59:26.878Z,12.03
2018-01-14T04:01:55.162Z,13.13
2018-01-14T04:04:23.454Z,13.37
2018-01-14T04:06:51.730Z,13.10
2018-01-14T04:09:20.031Z,12.85
2018-01-14T04:11:48.309Z,12.50
2018-01-14T04:14:16.610Z,12.77
2018-01-14T04:16:44.900Z,12.75
2018-01-14T04:19:13.208Z,13.02
2018-01-14T04:21:41.466Z,12.80
2018-01-14T04:24:09.789Z,11.90
2018-01-14T04:26:38.062Z,12.32
2018-01-14T04:29:06.366Z,12.43
2018-01-14T04:31:34.672Z,13.17
2018-01-14T04:34:02.999Z,12.23
2018-01-14T04:36:31.279Z,13.80
2018-01-14T04:38:59.564Z,11.63
2018-01-14T04:41:27.850Z,11.33
2018-01-14T04:43:56.180Z,11.77
2018-01-14T04:46:24.458Z,11.90
2018-01-14T04:48:52.718Z,11.80
2018-01-14T04:51:21.031Z,13.53
2018-01-14T04:53:49.303Z,12.77
2018-01-14T04:56:17.611Z,11.48
2018-01-14T04:58:45.888Z,12.10
2018-01-14T05:01:14.184Z,11.05
2018-01-14T05:03:42.753Z,12.23
2018-01-14T05:06:11.060Z,11.93
2018-01-14T05:08:39.328Z,12.37
2018-01-14T05:11:07.639Z,11.93
2018-01-14T05:13:35.934Z,12.27
2018-01-14T05:16:04.232Z,12.30
2018-01-14T05:18:32.510Z,11.67
2018-01-14T05:21:00.783Z,12.00
2018-01-14T05:23:29.073Z,11.32
2018-01-14T05:25:57.346Z,11.90
2018-01-14T05:28:25.657Z,12.35
2018-01-14T05:30:53.957Z,11.30
2018-01-14T05:33:22.263Z,12.47
2018-01-14T05:35:50.547Z,11.13
2018-01-14T05:38:18.834Z,12.13
2018-01-14T05:40:47.113Z,11.90
2018-01-14T05:43:15.435Z,12.10
2018-01-14T05:45:43.719Z,10.88
2018-01-14T05:48:12.343Z,12.93
2018-01-14T05:50:40.623Z,11.90
2018-01-14T05:53:08.934Z,12.10
2018-01-14T05:55:37.467Z,12.87
2018-01-14T05:58:05.748Z,12.50
2018-01-14T06:00:34.636Z,12.77
2018-01-14T06:03:02.929Z,12.67
2018-01-14T06:05:31.221Z,12.70
2018-01-14T06:07:59.540Z,12.83
2018-01-14T06:10:27.846Z,12.25
2018-01-14T06:12:56.128Z,12.17
2018-01-14T06:15:24.428Z,12.30
2018-01-14T06:17:52.690Z,13.90
2018-01-14T06:20:20.986Z,13.80
2018-01-14T06:22:49.262Z,13.30
2018-01-14T06:25:17.592Z,12.53
2018-01-14T06:27:45.855Z,13.87
2018-01-14T06:30:14.168Z,13.23
2018-01-14T06:32:42.431Z,12.17
2018-01-14T06:35:10.743Z,13.55
2018-01-14T06:37:38.998Z,13.77
2018-01-14T06:40:07.276Z,13.20
2018-01-14T06:42:35.638Z,11.40
2018-01-14T06:45:04.958Z,13.46
2018-01-14T06:47:33.237Z,13.63
2018-01-14T06:50:01.509Z,13.43
2018-01-14T06:52:29.815Z,17.73
2018-01-14T06:54:58.100Z,14.57
2018-01-14T06:57:26.407Z,15.20
2018-01-14T06:59:54.687Z,15.50
2018-01-14T07:02:23.067Z,14.13
2018-01-14T07:04:51.377Z,13.67
2018-01-14T07:07:19.655Z,14.60
2018-01-14T07:09:47.944Z,13.50
2018-01-14T07:12:16.215Z,14.97
2018-01-14T07:14:44.531Z,13.03
2018-01-14T07:17:12.836Z,14.25
2018-01-14T07:19:41.156Z,12.93
2018-01-14T07:22:09.430Z,12.97
2018-01-14T07:24:37.782Z,13.90
2018-01-14T07:27:06.057Z,14.50
2018-01-14T07:29:34.790Z,14.47
2018-01-14T07:32:03.068Z,14.70
2018-01-14T07:34:31.548Z,15.13
2018-01-14T07:36:59.867Z,14.00
2018-01-14T07:39:28.145Z,13.13
2018-01-14T07:41:56.462Z,14.03
2018-01-14T07:44:24.763Z,13.60
2018-01-14T07:46:53.084Z,13.50
2018-01-14T07:49:21.385Z,12.77
2018-01-14T07:51:49.725Z,15.23
2018-01-14T07:54:18.016Z,13.73
2018-01-14T07:56:46.320Z,14.80
2018-01-14T07:59:14.614Z,13.73
2018-01-14T08:01:42.948Z,13.70
2018-01-14T08:04:11.254Z,14.40
2018-01-14T08:06:39.525Z,14.40
2018-01-14T08:09:07.824Z,14.07
2018-01-14T08:11:36.113Z,14.43
2018-01-14T08:14:04.716Z,14.18
2018-01-14T08:16:33.047Z,13.93
2018-01-14T08:19:01.347Z,14.55
2018-01-14T08:21:29.616Z,13.67
2018-01-14T08:23:57.927Z,14.10
2018-01-14T08:26:26.506Z,14.23
2018-01-14T08:28:54.812Z,14.37
2018-01-14T08:31:23.077Z,15.63
2018-01-14T08:33:51.398Z,14.73
2018-01-14T08:36:19.684Z,13.63
2018-01-14T08:38:47.970Z,14.50
2018-01-14T08:41:16.270Z,14.60
2018-01-14T08:43:44.558Z,15.10
2018-01-14T08:46:12.855Z,14.43
2018-01-14T08:48:41.124Z,15.50
2018-01-14T08:51:09.439Z,13.00
2018-01-14T08:53:37.716Z,13.75
2018-01-14T08:56:06.009Z,14.03
2018-01-14T08:58:34.307Z,13.97
2018-01-14T09:01:02.651Z,14.77
2018-01-14T09:03:30.888Z,14.60
2018-01-14T09:05:59.151Z,13.30
2018-01-14T09:08:27.431Z,13.90
2018-01-14T09:10:55.696Z,13.77
2018-01-14T09:13:24.008Z,14.17
2018-01-14T09:15:52.290Z,13.85
2018-01-14T09:18:20.613Z,13.53
2018-01-14T09:20:48.919Z,14.87
2018-01-14T09:23:17.276Z,13.65
2018-01-14T09:25:45.551Z,14.23
2018-01-14T09:28:14.188Z,13.60
2018-01-14T09:31:08.244Z,13.33
2018-01-14T09:33:36.554Z,13.50
2018-01-14T09:36:05.252Z,13.45
2018-01-14T09:38:33.535Z,14.33
2018-01-14T09:41:02.054Z,13.63
2018-01-14T09:43:31.055Z,13.13
2018-01-14T09:45:59.404Z,13.43
2018-01-14T09:48:27.683Z,13.77
2018-01-14T09:50:55.943Z,13.77
2018-01-14T09:53:24.277Z,13.23
2018-01-14T09:55:53.271Z,13.60
2018-01-14T09:58:21.544Z,13.32
2018-01-14T10:00:49.856Z,12.03
2018-01-14T10:03:18.149Z,12.53
2018-01-14T10:05:46.435Z,13.27
2018-01-14T10:08:14.735Z,13.25
2018-01-14T10:10:43.091Z,13.47
2018-01-14T10:13:11.361Z,13.62
2018-01-14T10:15:39.654Z,11.53
2018-01-14T10:18:07.936Z,13.10
2018-01-14T10:20:36.224Z,13.13
2018-01-14T10:23:05.472Z,11.30
2018-01-14T10:25:33.793Z,12.40
2018-01-14T10:28:02.100Z,12.52
2018-01-14T10:30:30.331Z,12.07
2018-01-14T10:32:58.623Z,11.60
2018-01-14T10:35:26.899Z,11.10
2018-01-14T10:37:55.226Z,10.53
2018-01-14T10:40:23.492Z,11.20
2018-01-14T10:42:51.817Z,11.50
2018-01-14T10:45:20.100Z,11.97
2018-01-14T10:47:48.450Z,10.90
2018-01-14T10:50:16.728Z,10.80
2018-01-14T10:52:45.011Z,11.05
2018-01-14T10:55:14.148Z,11.87
2018-01-14T10:57:42.467Z,9.77
2018-01-14T11:00:10.743Z,10.35
2018-01-14T11:02:39.021Z,10.33
2018-01-14T11:05:07.330Z,11.93
2018-01-14T11:07:35.588Z,10.57
2018-01-14T11:10:03.904Z,11.37
2018-01-14T11:12:32.180Z,11.80
2018-01-14T11:15:01.230Z,11.25
2018-01-14T11:17:29.511Z,11.63
2018-01-14T11:19:57.818Z,11.80
2018-01-14T11:22:26.136Z,10.80
2018-01-14T11:24:54.419Z,11.47
2018-01-14T11:27:22.717Z,10.97
2018-01-14T11:29:51.855Z,10.40
2018-01-14T11:32:20.148Z,11.97
2018-01-14T11:34:48.480Z,11.80
2018-01-14T11:37:16.779Z,11.88
2018-01-14T11:39:45.075Z,11.47
2018-01-14T11:42:13.379Z,10.80
2018-01-14T11:44:41.698Z,11.47
2018-01-14T11:47:09.952Z,10.77
2018-01-14T11:49:38.230Z,11.87
2018-01-14T11:52:06.558Z,11.20
2018-01-14T11:54:34.819Z,11.27
2018-01-14T11:57:03.142Z,11.10
2018-01-14T11:59:31.484Z,11.03
2018-01-14T12:01:59.755Z,10.63
2018-01-14T12:04:28.043Z,18.97
2018-01-14T12:06:56.358Z,11.40
2018-01-14T12:09:24.648Z,10.97
2018-01-14T12:11:52.930Z,10.20
2018-01-14T12:14:21.224Z,10.97
2018-01-14T12:16:49.532Z,10.87
2018-01-14T12:19:17.850Z,11.77
2018-01-14T12:21:46.138Z,11.63
2018-01-14T12:24:14.708Z,12.10
2018-01-14T12:26:43.001Z,10.70
2018-01-14T12:29:11.369Z,12.10
2018-01-14T12:31:40.270Z,11.10
2018-01-14T12:37:11.162Z,11.17
2018-01-14T12:39:40.138Z,11.37
2018-01-14T12:42:08.455Z,10.87
2018-01-14T12:44:36.755Z,10.30
2018-01-14T12:47:05.054Z,11.13
2018-01-14T12:49:33.379Z,11.50
2018-01-14T12:52:01.659Z,11.00
2018-01-14T12:54:29.974Z,10.60
2018-01-14T12:56:58.268Z,10.97
2018-01-14T12:59:26.585Z,10.07
2018-01-14T13:01:54.985Z,10.77
2018-01-14T13:04:23.267Z,9.73
2018-01-14T13:06:51.563Z,10.30
2018-01-14T13:09:19.832Z,11.10
2018-01-14T13:11:48.160Z,11.40
2018-01-14T13:14:16.437Z,11.00
2018-01-14T13:16:44.727Z,10.50
2018-01-14T13:19:13.015Z,10.30
2018-01-14T13:21:41.320Z,10.60
2018-01-14T13:24:09.688Z,10.40
2018-01-14T13:26:37.932Z,10.47
2018-01-14T13:29:06.238Z,11.10
2018-01-14T13:31:34.535Z,10.43
2018-01-14T13:34:02.826Z,9.90
2018-01-14T13:36:31.100Z,11.20
2018-01-14T13:38:59.415Z,10.13
2018-01-14T13:41:28.471Z,11.80
2018-01-14T13:43:56.782Z,11.03
2018-01-14T13:46:25.091Z,10.40
2018-01-14T13:48:53.709Z,9.93
2018-01-14T13:51:21.955Z,10.20
2018-01-14T13:53:50.232Z,11.40
2018-01-14T13:56:18.519Z,10.38
2018-01-14T13:58:46.788Z,10.07
2018-01-14T14:01:15.160Z,9.83
2018-01-14T14:03:43.402Z,9.70
2018-01-14T14:06:11.703Z,9.50
2018-01-14T14:08:39.963Z,10.53
2018-01-14T14:11:08.623Z,9.70
2018-01-14T14:13:37.430Z,10.57
2018-01-14T14:16:09.545Z,9.50
2018-01-14T14:18:38.828Z,9.90
2018-01-14T14:21:07.118Z,8.80
2018-01-14T14:23:35.388Z,9.95
2018-01-14T14:26:04.367Z,10.00
2018-01-14T14:28:32.614Z,9.30
2018-01-14T14:31:01.775Z,9.03
2018-01-14T14:33:30.043Z,8.33
2018-01-14T14:35:58.339Z,8.80
2018-01-14T14:38:26.613Z,10.27
2018-01-14T14:40:54.908Z,9.70
2018-01-14T14:43:23.226Z,8.40
2018-01-14T14:45:51.488Z,9.32
2018-01-14T14:48:19.806Z,9.65
2018-01-14T14:50:48.059Z,10.50
2018-01-14T14:53:16.411Z,9.27
2018-01-14T14:55:44.669Z,10.27
2018-01-14T14:58:13.115Z,9.83
2018-01-14T15:00:41.330Z,10.00
2018-01-14T15:03:09.636Z,10.38
2018-01-14T15:05:37.949Z,11.13
2018-01-14T15:08:06.327Z,10.65
2018-01-14T15:10:34.612Z,9.70
2018-01-14T15:13:02.922Z,10.27
2018-01-14T15:15:31.197Z,10.00
2018-01-14T15:17:59.514Z,9.40
2018-01-14T15:20:27.775Z,10.00
2018-01-14T15:22:56.059Z,9.70
2018-01-14T15:25:24.349Z,8.73
2018-01-14T15:27:52.624Z,8.63
2018-01-14T15:30:20.918Z,8.87
2018-01-14T15:32:49.204Z,8.87
2018-01-14T15:35:17.495Z,9.23
2018-01-14T15:37:45.771Z,9.23
2018-01-14T15:40:14.062Z,9.70
2018-01-14T15:42:42.343Z,8.90
2018-01-14T15:45:10.674Z,9.18
2018-01-14T15:47:38.947Z,9.13
2018-01-14T15:50:07.209Z,8.70
2018-01-14T15:52:35.509Z,8.13
2018-01-14T15:55:03.775Z,8.00
2018-01-14T15:57:32.079Z,9.10
2018-01-14T16:00:00.342Z,6.80
2018-01-14T16:02:28.635Z,8.87
2018-01-14T16:04:56.952Z,8.30
2018-01-14T16:07:26.252Z,9.23
2018-01-14T16:09:54.607Z,7.90
2018-01-14T16:12:22.909Z,8.70
2018-01-14T16:14:51.187Z,8.17
2018-01-14T16:17:19.468Z,8.10
2018-01-14T16:19:47.733Z,8.60
2018-01-14T16:22:16.034Z,8.20
2018-01-14T16:24:44.292Z,8.70
2018-01-14T16:27:12.566Z,8.53
2018-01-14T16:29:40.844Z,8.00
2018-01-14T16:32:09.115Z,7.77
2018-01-14T16:34:37.397Z,7.60
2018-01-14T16:37:05.649Z,8.00
2018-01-14T16:39:33.958Z,8.87
2018-01-14T16:42:02.261Z,7.80
2018-01-14T16:44:30.507Z,9.20
2018-01-14T16:46:58.776Z,8.00
2018-01-14T16:49:27.057Z,8.97
2018-01-14T16:51:55.329Z,9.20
2018-01-14T16:54:23.612Z,8.73
2018-01-14T16:56:51.868Z,9.23
2018-01-14T16:59:20.161Z,9.77
2018-01-14T17:01:48.439Z,10.57
2018-01-14T17:04:16.694Z,9.60
2018-01-14T17:06:45.030Z,9.67
2018-01-14T17:09:13.261Z,10.33
2018-01-14T17:11:41.539Z,9.70
2018-01-14T17:14:09.811Z,10.37
2018-01-14T17:16:38.556Z,10.30
2018-01-14T17:19:06.847Z,9.30
2018-01-14T17:21:35.195Z,8.83
2018-01-14T17:24:03.461Z,9.43
2018-01-14T17:26:31.742Z,8.97
2018-01-14T17:28:59.989Z,9.53
2018-01-14T17:31:28.276Z,10.57
2018-01-14T17:33:56.543Z,9.50
2018-01-14T17:36:24.843Z,10.10
2018-01-14T17:38:53.140Z,9.53
2018-01-14T17:41:21.395Z,11.27
2018-01-14T17:43:49.676Z,11.93
2018-01-14T17:46:17.950Z,11.30
2018-01-14T17:48:46.231Z,11.67
2018-01-14T17:51:14.507Z,11.10
2018-01-14T17:53:42.828Z,11.60
2018-01-14T17:56:11.091Z,11.97
2018-01-14T17:58:39.408Z,8.80
2018-01-14T18:01:07.651Z,8.53
2018-01-14T18:03:35.955Z,7.87
2018-01-14T18:06:04.211Z,7.80
2018-01-14T18:08:32.483Z,7.80
2018-01-14T18:11:00.784Z,8.23
2018-01-14T18:13:29.035Z,8.00
2018-01-14T18:15:57.330Z,8.07
2018-01-14T18:18:25.589Z,8.33
2018-01-14T18:20:53.870Z,7.10
2018-01-14T18:23:22.126Z,7.47
2018-01-14T18:25:50.419Z,7.40
2018-01-14T18:28:18.695Z,7.77
2018-01-14T18:30:46.986Z,8.97
2018-01-14T18:33:15.233Z,8.80
2018-01-14T18:35:43.736Z,8.20
2018-01-14T18:38:12.004Z,8.60
2018-01-14T18:40:40.322Z,8.00
2018-01-14T18:43:08.566Z,7.53
2018-01-14T18:45:48.682Z,8.10
2018-01-14T18:48:16.927Z,7.40
2018-01-14T18:50:45.184Z,8.10
2018-01-14T18:53:13.458Z,7.70
2018-01-14T18:55:41.733Z,8.50
2018-01-14T18:58:10.048Z,8.67
2018-01-14T19:00:38.344Z,8.20
2018-01-14T19:03:06.582Z,8.00
2018-01-14T19:05:34.840Z,8.20
2018-01-14T19:08:03.147Z,7.50
2018-01-14T19:10:31.432Z,8.23
2018-01-14T19:12:59.724Z,8.47
2018-01-14T19:15:27.991Z,9.10
2018-01-14T19:17:56.498Z,9.00
2018-01-14T19:20:24.753Z,9.23
2018-01-14T19:22:53.051Z,8.60
2018-01-14T19:25:21.314Z,9.30
2018-01-14T19:27:49.576Z,8.70
2018-01-14T19:30:17.871Z,8.10
2018-01-14T19:32:46.124Z,7.67
2018-01-14T19:35:14.418Z,8.90
2018-01-14T19:37:42.688Z,10.50
2018-01-14T19:40:10.967Z,10.80
2018-01-14T19:42:39.238Z,10.60
2018-01-14T19:45:07.536Z,10.70
2018-01-14T19:47:35.790Z,11.07
2018-01-14T19:50:04.099Z,10.57
2018-01-14T19:52:32.948Z,9.93
2018-01-14T19:55:01.270Z,8.80
2018-01-14T19:57:30.395Z,8.60
2018-01-14T19:59:59.480Z,8.80
2018-01-14T20:02:27.753Z,8.47
2018-01-14T20:04:56.004Z,8.07
2018-01-14T20:07:24.315Z,8.07
2018-01-14T20:09:53.512Z,8.20
2018-01-14T20:12:21.795Z,7.40
2018-01-14T20:14:50.057Z,7.80
2018-01-14T20:17:18.342Z,7.73
2018-01-14T20:19:46.600Z,8.30
2018-01-14T20:22:14.915Z,8.23
2018-01-14T20:24:43.176Z,9.07
2018-01-14T20:27:11.451Z,8.73
2018-01-14T20:29:39.882Z,7.53
2018-01-14T20:32:08.164Z,7.60
2018-01-14T20:34:35.735Z,8.10
2018-01-14T20:37:03.760Z,7.27
2018-01-14T20:39:32.093Z,8.03
2018-01-14T20:42:00.358Z,8.23
2018-01-14T20:44:28.651Z,7.70
2018-01-14T20:46:56.904Z,7.97
2018-01-14T20:49:25.819Z,7.40
2018-01-14T20:51:54.071Z,8.10
2018-01-14T20:54:22.413Z,7.63
2018-01-14T20:56:50.793Z,7.40
2018-01-14T20:59:19.031Z,7.10
2018-01-14T21:01:47.345Z,7.13
2018-01-14T21:04:15.597Z,7.40
2018-01-14T21:06:43.872Z,7.70
2018-01-14T21:09:12.119Z,7.00
2018-01-14T21:11:40.417Z,7.83
2018-01-14T21:14:08.724Z,7.43
2018-01-14T21:16:36.969Z,8.30
2018-01-14T21:19:05.243Z,7.33
2018-01-14T21:21:33.516Z,7.50
2018-01-14T21:24:01.781Z,7.30
2018-01-14T21:26:30.040Z,7.50
2018-01-14T21:28:58.294Z,7.90
2018-01-14T21:31:26.596Z,7.83
2018-01-14T21:33:54.942Z,7.10
2018-01-14T21:36:23.184Z,8.90
2018-01-14T21:38:51.455Z,7.40
2018-01-14T21:41:19.737Z,7.73
2018-01-14T21:43:48.037Z,6.90
2018-01-14T21:46:16.294Z,7.23
2018-01-14T21:48:44.597Z,6.80
2018-01-14T21:51:12.842Z,7.20
2018-01-14T21:53:41.122Z,7.10
2018-01-14T21:56:09.386Z,7.17
2018-01-14T21:58:37.677Z,7.10
2018-01-14T22:01:05.930Z,7.20
2018-01-14T22:03:34.211Z,7.40
2018-01-14T22:06:02.481Z,6.83
2018-01-14T22:08:30.762Z,7.33
2018-01-14T22:10:59.037Z,6.83
2018-01-14T22:13:27.350Z,6.63
2018-01-14T22:15:55.615Z,7.43
2018-01-14T22:18:23.894Z,7.53
2018-01-14T22:20:52.163Z,7.27
2018-01-14T22:23:20.409Z,7.93
2018-01-14T22:25:48.690Z,7.10
2018-01-14T22:28:16.942Z,7.93
2018-01-14T22:30:45.227Z,8.33
2018-01-14T22:33:13.486Z,7.90
2018-01-14T22:35:41.812Z,7.30
2018-01-14T22:38:10.075Z,7.40
2018-01-14T22:40:38.351Z,7.53
2018-01-14T22:43:06.670Z,7.30
2018-01-14T22:45:34.953Z,7.20
2018-01-14T22:48:03.281Z,7.37
2018-01-14T22:50:32.648Z,7.60
2018-01-14T22:53:01.012Z,8.30
2018-01-14T22:55:29.239Z,7.82
2018-01-14T22:57:57.630Z,8.47
2018-01-14T23:00:25.895Z,7.80
2018-01-14T23:02:54.233Z,7.70
2018-01-14T23:05:22.523Z,8.40
2018-01-14T23:07:50.808Z,8.70
2018-01-14T23:10:19.131Z,9.20
2018-01-14T23:12:47.785Z,9.57
2018-01-14T23:15:16.040Z,10.40
2018-01-14T23:17:44.664Z,10.63
2018-01-14T23:20:12.951Z,11.33
2018-01-14T23:22:41.212Z,10.63
2018-01-14T23:25:09.514Z,9.15
2018-01-14T23:27:38.606Z,8.23
2018-01-14T23:30:06.908Z,7.37
2018-01-14T23:32:35.227Z,8.63
2018-01-14T23:35:03.524Z,8.90
2018-01-14T23:37:31.795Z,8.57
2018-01-14T23:40:00.137Z,8.75
2018-01-14T23:42:28.428Z,9.00
2018-01-14T23:44:56.729Z,8.45
2018-01-14T23:47:24.993Z,8.20
2018-01-14T23:49:53.373Z,8.27
2018-01-14T23:52:21.642Z,8.77
2018-01-14T23:54:49.921Z,9.33
2018-01-14T23:57:18.223Z,9.00
2018-01-14T23:59:46.496Z,8.00
